createdAt,value
2022-08-18T00:08:20.130Z,98300.52
2022-08-18T00:18:49.113Z,98316.58
2022-08-18T00:29:17.874Z,98307.35
2022-08-18T00:39:47.955Z,98292.41
2022-08-18T00:50:20.824Z,98293.76
2022-08-18T01:00:51.768Z,98301.50
2022-08-18T01:11:20.903Z,98298.70
2022-08-18T01:21:54.363Z,98298.77
2022-08-18T01:32:25.364Z,98283.50
2022-08-18T01:42:54.228Z,98274.20
2022-08-18T01:53:23.216Z,98261.80
2022-08-18T02:04:02.559Z,98255.20
2022-08-18T02:14:44.544Z,98255.64
2022-08-18T02:25:15.972Z,98259.05
2022-08-18T02:35:46.606Z,98273.02
2022-08-18T02:46:15.608Z,98280.52
2022-08-18T02:56:46.009Z,98282.05
2022-08-18T03:07:16.027Z,98294.29
2022-08-18T03:17:45.182Z,98293.23
2022-08-18T03:28:14.084Z,98294.75
2022-08-18T03:38:44.255Z,98297.14
2022-08-18T03:49:17.399Z,98296.77
2022-08-18T03:59:46.594Z,98305.43
2022-08-18T04:10:19.725Z,98304.74
2022-08-18T04:20:59.064Z,98303.43
2022-08-18T04:31:29.949Z,98307.61
2022-08-18T04:41:59.741Z,98311.16
2022-08-18T04:52:45.730Z,98308.65
2022-08-18T05:03:15.423Z,98301.83
2022-08-18T05:13:44.561Z,98301.05
2022-08-18T05:24:13.796Z,98309.97
2022-08-18T05:34:42.939Z,98317.77
2022-08-18T05:45:25.009Z,98307.35
2022-08-18T05:56:19.824Z,98311.55
2022-08-18T06:06:50.177Z,98311.96
2022-08-18T06:17:46.705Z,98318.83
2022-08-18T06:28:18.711Z,98325.97
2022-08-18T06:39:02.438Z,98329.04
2022-08-18T06:49:43.852Z,98331.36
2022-08-18T07:00:24.869Z,98331.09
2022-08-18T07:10:55.038Z,98333.02
2022-08-18T07:21:32.055Z,98333.46
2022-08-18T07:32:05.888Z,98327.57
2022-08-18T07:43:00.692Z,98316.74
2022-08-18T07:53:42.242Z,98321.67
2022-08-18T08:04:25.442Z,98322.58
2022-08-18T08:15:18.061Z,98336.55
2022-08-18T08:26:25.670Z,98353.98
2022-08-18T08:37:02.070Z,98349.45
2022-08-18T08:47:37.190Z,98333.16
2022-08-18T08:58:21.044Z,98346.90
2022-08-18T09:09:12.565Z,98357.66
2022-08-18T09:19:59.285Z,98357.95
2022-08-18T09:30:54.149Z,98350.48
2022-08-18T09:41:34.929Z,98347.27
2022-08-18T09:52:24.455Z,98348.58
2022-08-18T10:03:25.434Z,98341.86
2022-08-18T10:14:10.076Z,98323.83
2022-08-18T10:24:46.586Z,98310.91
2022-08-18T10:35:52.965Z,98299.06
2022-08-18T10:46:27.749Z,98282.48
2022-08-18T10:57:14.742Z,98274.88
2022-08-18T11:07:52.087Z,98270.46
2022-08-18T11:18:42.573Z,98258.29
2022-08-18T11:29:41.484Z,98250.02
2022-08-18T11:41:02.021Z,98232.82
2022-08-18T11:51:23.703Z,98223.34
2022-08-18T12:01:54.969Z,98214.91
2022-08-18T12:12:28.552Z,98211.49
2022-08-18T12:22:59.404Z,98194.99
2022-08-18T12:44:18.533Z,98178.66
2022-08-18T13:05:39.990Z,98185.98
2022-08-18T13:16:10.626Z,98202.60
2022-08-18T13:26:48.685Z,98212.50
2022-08-18T13:37:17.767Z,98212.94
2022-08-18T13:47:52.125Z,98212.92
2022-08-18T13:58:22.057Z,98210.52
2022-08-18T14:08:51.310Z,98208.95
2022-08-18T14:19:37.362Z,98204.08
2022-08-18T14:30:13.744Z,98194.86
2022-08-18T14:40:44.856Z,98178.26
2022-08-18T14:51:14.145Z,98171.63
2022-08-18T15:01:43.441Z,98163.13
2022-08-18T15:12:17.716Z,98182.84
2022-08-18T15:23:05.114Z,98184.57
2022-08-18T15:33:36.201Z,98184.59
2022-08-18T15:44:06.770Z,98191.23
2022-08-18T15:54:37.532Z,98195.83
2022-08-18T16:05:14.030Z,98188.89
2022-08-18T16:15:47.034Z,98182.25
2022-08-18T16:36:47.014Z,98178.17
2022-08-18T16:47:18.641Z,98176.45
2022-08-18T16:58:05.017Z,98166.96
2022-08-18T17:08:34.479Z,98150.62
2022-08-18T17:19:08.480Z,98142.60
2022-08-18T17:29:45.939Z,98153.70
2022-08-18T17:40:22.252Z,98166.61
2022-08-18T17:51:14.711Z,98179.61
2022-08-18T18:01:44.201Z,98194.75
2022-08-18T18:12:23.916Z,98212.45
2022-08-18T18:22:53.286Z,98214.48
2022-08-18T18:33:23.296Z,98206.73
2022-08-18T18:44:05.845Z,98197.64
2022-08-18T18:54:49.759Z,98180.09
2022-08-18T19:05:29.179Z,98159.71
2022-08-18T19:16:02.503Z,98128.07
2022-08-18T19:26:39.063Z,98135.23
2022-08-18T19:37:27.540Z,98127.20
2022-08-18T19:48:09.055Z,98129.34
2022-08-18T19:59:15.108Z,98122.60
2022-08-18T20:10:06.507Z,98110.91
2022-08-18T20:20:38.368Z,98103.91
2022-08-18T20:31:15.441Z,98091.88
2022-08-18T20:41:50.963Z,98083.88
2022-08-18T20:52:29.098Z,98075.51
2022-08-18T21:03:01.112Z,98074.63
2022-08-18T21:13:40.867Z,98076.64
2022-08-18T21:24:20.158Z,98089.72
2022-08-18T21:34:49.680Z,98093.14
2022-08-18T21:45:22.267Z,98098.54
2022-08-18T21:55:52.794Z,98097.91
2022-08-18T22:06:30.247Z,98092.84
2022-08-18T22:17:33.106Z,98096.27
2022-08-18T22:28:03.359Z,98102.91
2022-08-18T22:38:32.968Z,98100.58
2022-08-18T22:49:03.199Z,98107.46
2022-08-18T22:59:32.810Z,98116.14
2022-08-18T23:10:03.536Z,98124.16
2022-08-18T23:20:37.769Z,98123.01
2022-08-18T23:31:11.243Z,98123.73
2022-08-18T23:41:41.277Z,98110.29
2022-08-18T23:52:10.599Z,98112.04
